Time;durP1;ratioP1;P1;durP2;ratioP2;P2;SDS_P1;SDS_P2;PMS_P1;PMS_P2;Temp;Humidity;BMP_temperature;BMP_pressure;BME280_temperature;BME280_humidity;BME280_pressure;Samples;Min_cycle;Max_cycle;Signal;HPM_P1;HPM_P2
2022/06/09 00:01:16;;;;;;;3.07;2.80;;;21.10;58.40;;;;;;4885724;29;20976;-93
2022/06/09 00:03:54;;;;;;;4.27;3.20;;;21.10;58.70;;;;;;4875685;29;20482;-93
2022/06/09 00:06:30;;;;;;;2.80;2.60;;;21.00;58.50;;;;;;4873590;29;20444;-92
2022/06/09 00:09:07;;;;;;;4.07;3.37;;;21.00;58.50;;;;;;4873583;29;20602;-93
2022/06/09 00:11:42;;;;;;;6.10;3.20;;;21.00;58.70;;;;;;4861505;29;20448;-93
2022/06/09 00:14:19;;;;;;;3.60;3.27;;;21.00;58.50;;;;;;4882129;29;20559;-93
2022/06/09 00:16:52;;;;;;;2.80;2.60;;;20.90;58.90;;;;;;4867275;29;20452;-93
2022/06/09 00:19:27;;;;;;;3.60;3.30;;;21.00;59.20;;;;;;4888723;29;20815;-93
2022/06/09 00:21:56;;;;;;;3.53;3.23;;;21.00;58.90;;;;;;4873282;29;20654;-94
2022/06/09 00:24:25;;;;;;;4.47;3.23;;;21.00;59.20;;;;;;4875001;29;21148;-94
2022/06/09 00:26:55;;;;;;;3.53;3.23;;;21.10;59.30;;;;;;4885225;29;20507;-93
2022/06/09 00:29:24;;;;;;;3.80;3.50;;;21.10;59.30;;;;;;4902529;29;20459;-94
2022/06/09 00:31:56;;;;;;;2.80;2.60;;;21.10;59.30;;;;;;4873963;29;21057;-93
2022/06/09 00:34:26;;;;;;;5.30;2.80;;;21.10;59.30;;;;;;4876700;29;20463;-92
2022/06/09 00:36:59;;;;;;;5.70;2.90;;;21.10;59.60;;;;;;4879834;29;20451;-92
2022/06/09 00:39:28;;;;;;;3.40;3.10;;;21.10;59.60;;;;;;4863884;29;20444;-93
2022/06/09 00:42:00;;;;;;;3.53;3.23;;;21.20;59.60;;;;;;4883315;29;20456;-93
2022/06/09 00:44:32;;;;;;;2.40;2.20;;;21.10;59.30;;;;;;4887837;29;20500;-92
2022/06/09 00:47:09;;;;;;;4.67;3.50;;;21.10;59.50;;;;;;4875415;29;20449;-93
2022/06/09 00:49:47;;;;;;;3.10;2.90;;;21.10;59.40;;;;;;4895732;29;20465;-93
2022/06/09 00:52:24;;;;;;;4.17;3.33;;;21.00;59.50;;;;;;4860477;29;20531;-94
2022/06/09 00:55:00;;;;;;;3.40;3.20;;;21.00;59.80;;;;;;4871371;29;20524;-95
2022/06/09 00:57:35;;;;;;;3.57;3.27;;;21.10;60.00;;;;;;4887064;29;20469;-92
2022/06/09 01:00:11;;;;;;;3.40;3.10;;;21.10;59.70;;;;;;4877502;29;20888;-93
2022/06/09 01:02:41;;;;;;;8.53;3.70;;;21.10;59.40;;;;;;4874273;29;20473;-94
2022/06/09 01:05:15;;;;;;;11.57;3.67;;;20.80;59.60;;;;;;4868868;29;20456;-92
2022/06/09 01:07:51;;;;;;;3.93;3.00;;;20.80;60.20;;;;;;4888120;29;20470;-93
2022/06/09 01:10:21;;;;;;;3.97;3.40;;;20.90;59.80;;;;;;4879143;29;20530;-93
2022/06/09 01:12:50;;;;;;;3.33;2.90;;;21.00;59.90;;;;;;4858589;29;20571;-93
2022/06/09 01:15:23;;;;;;;3.00;2.70;;;21.00;59.10;;;;;;4888777;29;20489;-92
2022/06/09 01:18:03;;;;;;;4.20;3.33;;;21.00;58.50;;;;;;4883818;29;21054;-92
2022/06/09 01:20:41;;;;;;;3.67;3.30;;;21.00;58.70;;;;;;4887786;29;21204;-93
2022/06/09 01:23:37;;;;;;;3.47;3.17;;;20.80;59.10;;;;;;4875216;29;20472;-93
2022/06/09 01:26:23;;;;;;;3.80;3.50;;;20.90;59.30;;;;;;4873498;29;20459;-93
2022/06/09 01:29:25;;;;;;;4.90;3.27;;;21.00;59.20;;;;;;4890058;29;20485;-94
2022/06/09 01:32:04;;;;;;;3.80;3.50;;;21.00;58.90;;;;;;4871255;29;20437;-93
2022/06/09 01:34:43;;;;;;;4.00;3.70;;;21.00;59.00;;;;;;4884051;29;20796;-93
2022/06/09 01:37:16;;;;;;;4.10;3.27;;;21.00;59.40;;;;;;4877053;29;20458;-96
2022/06/09 01:39:51;;;;;;;4.93;3.47;;;21.10;59.50;;;;;;4872737;29;21217;-93
2022/06/09 01:42:24;;;;;;;4.37;3.10;;;21.10;59.50;;;;;;4874069;29;21250;-93
2022/06/09 01:44:59;;;;;;;3.80;3.50;;;21.10;59.50;;;;;;4878739;29;20453;-93
2022/06/09 01:47:37;;;;;;;5.00;3.40;;;21.10;59.60;;;;;;4891086;29;20471;-93
2022/06/09 01:50:12;;;;;;;4.63;3.30;;;21.10;59.40;;;;;;4861426;29;20547;-93
2022/06/09 01:52:44;;;;;;;7.80;3.60;;;21.20;59.10;;;;;;4873788;29;20487;-92
2022/06/09 01:55:18;;;;;;;3.70;3.40;;;21.20;59.00;;;;;;4855128;29;20872;-94
2022/06/09 01:57:53;;;;;;;4.47;3.90;;;21.20;58.90;;;;;;4878545;29;20448;-92
2022/06/09 02:00:27;;;;;;;4.57;3.43;;;21.20;58.80;;;;;;4873609;29;20514;-93
2022/06/09 02:03:04;;;;;;;3.93;3.63;;;21.10;58.70;;;;;;4870009;29;20469;-93
2022/06/09 02:05:40;;;;;;;4.00;3.70;;;21.10;59.10;;;;;;4864454;29;20487;-93
2022/06/09 02:08:13;;;;;;;4.27;3.87;;;21.10;59.20;;;;;;4875262;29;20471;-94
2022/06/09 02:10:46;;;;;;;4.03;3.70;;;21.20;59.40;;;;;;4887888;29;20466;-93
2022/06/09 02:13:28;;;;;;;3.60;3.30;;;21.20;59.30;;;;;;4868860;29;20562;-90
2022/06/09 02:16:03;;;;;;;9.17;4.10;;;21.10;59.50;;;;;;4870388;29;20448;-93
2022/06/09 02:18:41;;;;;;;6.90;4.10;;;21.10;60.00;;;;;;4871952;29;20463;-93
2022/06/09 02:21:19;;;;;;;5.30;3.80;;;21.10;59.50;;;;;;4861026;29;20551;-92
2022/06/09 02:23:48;;;;;;;4.07;3.77;;;21.20;59.50;;;;;;4897688;29;20850;-93
2022/06/09 02:26:19;;;;;;;5.50;4.30;;;21.10;59.50;;;;;;4870414;29;20449;-92
2022/06/09 02:28:50;;;;;;;4.53;4.07;;;21.10;59.80;;;;;;4880744;29;20452;-94
2022/06/09 02:31:23;;;;;;;4.67;4.17;;;21.10;60.00;;;;;;4854365;29;20507;-93
2022/06/09 02:33:55;;;;;;;4.70;3.60;;;21.10;59.90;;;;;;4895341;29;20606;-93
2022/06/09 02:36:25;;;;;;;6.63;3.50;;;21.10;59.90;;;;;;4907121;29;21047;-92
2022/06/09 02:38:59;;;;;;;4.60;4.10;;;21.10;60.00;;;;;;4907799;29;20459;-92
2022/06/09 02:41:28;;;;;;;6.90;3.90;;;21.10;60.20;;;;;;4888739;29;20461;-93
2022/06/09 02:43:59;;;;;;;7.07;4.40;;;21.00;60.20;;;;;;4872102;29;20883;-92
2022/06/09 02:46:28;;;;;;;4.57;3.67;;;21.00;60.50;;;;;;4890576;29;21288;-93
2022/06/09 02:49:04;;;;;;;5.70;3.80;;;20.90;60.80;;;;;;4866016;29;20469;-92
2022/06/09 02:51:40;;;;;;;7.23;4.03;;;20.90;61.00;;;;;;4864126;29;20794;-93
2022/06/09 02:54:12;;;;;;;6.43;4.50;;;20.80;60.80;;;;;;4864712;29;20487;-92
2022/06/09 02:56:42;;;;;;;5.37;4.47;;;20.90;60.80;;;;;;4892513;29;20897;-92
2022/06/09 02:59:12;;;;;;;4.40;4.00;;;20.90;60.50;;;;;;4861594;29;20554;-93
2022/06/09 03:01:42;;;;;;;6.90;4.23;;;20.90;60.30;;;;;;4878921;29;20868;-93
2022/06/09 03:04:12;;;;;;;5.63;4.50;;;20.90;59.90;;;;;;4875053;29;20472;-93
2022/06/09 03:06:40;;;;;;;5.27;4.27;;;20.90;59.80;;;;;;4889546;29;20453;-93
2022/06/09 03:09:09;;;;;;;5.13;3.97;;;20.90;59.70;;;;;;4875416;29;20440;-93
2022/06/09 03:11:38;;;;;;;4.23;3.67;;;20.90;59.60;;;;;;4889642;29;20471;-93
2022/06/09 03:14:10;;;;;;;5.03;4.63;;;20.80;59.40;;;;;;4873816;29;20483;-93
2022/06/09 03:16:39;;;;;;;5.17;4.67;;;20.80;58.80;;;;;;4880000;29;20478;-93
2022/06/09 03:19:11;;;;;;;5.93;4.07;;;20.70;58.20;;;;;;4876921;29;20452;-93
2022/06/09 03:21:41;;;;;;;5.57;5.07;;;20.50;59.20;;;;;;4873506;29;20453;-92
2022/06/09 03:24:13;;;;;;;6.53;4.93;;;20.50;59.10;;;;;;4855909;29;21310;-93
2022/06/09 03:26:44;;;;;;;7.03;4.60;;;20.30;59.10;;;;;;4889600;29;20551;-93
2022/06/09 03:29:14;;;;;;;4.83;4.37;;;20.30;59.20;;;;;;4872495;29;20449;-93
2022/06/09 03:31:42;;;;;;;6.43;4.50;;;20.30;59.20;;;;;;4877564;29;20549;-93
2022/06/09 03:34:14;;;;;;;4.90;4.40;;;20.20;59.50;;;;;;4864041;29;20508;-93
2022/06/09 03:36:47;;;;;;;7.60;5.03;;;20.30;59.50;;;;;;4861757;29;20448;-94
2022/06/09 03:39:19;;;;;;;7.20;4.90;;;20.20;59.60;;;;;;4868737;29;20535;-93
2022/06/09 03:41:48;;;;;;;8.37;4.97;;;20.20;59.60;;;;;;4877107;29;21227;-93
2022/06/09 03:44:19;;;;;;;5.30;4.80;;;20.20;59.30;;;;;;4902674;29;20868;-93
2022/06/09 03:46:48;;;;;;;7.70;6.07;;;20.10;60.00;;;;;;4866198;29;20463;-92
2022/06/09 03:49:19;;;;;;;6.23;5.60;;;20.00;60.50;;;;;;4876034;29;20972;-91
2022/06/09 03:51:49;;;;;;;7.70;5.30;;;20.00;60.40;;;;;;4905751;29;20459;-92
2022/06/09 03:54:21;;;;;;;7.43;5.40;;;19.80;61.20;;;;;;4888066;29;22096;-91
2022/06/09 03:56:52;;;;;;;5.00;4.40;;;19.70;61.80;;;;;;4864110;29;20460;-91
2022/06/09 03:59:22;;;;;;;5.00;4.60;;;19.90;61.60;;;;;;4855066;29;20480;-91
2022/06/09 04:01:51;;;;;;;4.63;4.23;;;19.70;62.00;;;;;;4887100;29;20452;-92
2022/06/09 04:04:21;;;;;;;5.23;4.73;;;19.70;61.60;;;;;;4858752;29;21232;-92
2022/06/09 04:06:50;;;;;;;5.60;4.97;;;19.90;61.50;;;;;;4897981;29;20623;-92
2022/06/09 04:09:20;;;;;;;5.33;4.43;;;20.00;61.00;;;;;;4861912;29;20468;-92
2022/06/09 04:11:49;;;;;;;5.33;4.53;;;20.00;60.50;;;;;;4883055;29;20535;-92
2022/06/09 04:14:18;;;;;;;4.10;3.80;;;20.00;60.80;;;;;;4874830;29;20477;-92
2022/06/09 04:16:47;;;;;;;5.83;4.10;;;20.10;60.60;;;;;;4872882;29;21244;-92
2022/06/09 04:19:19;;;;;;;9.23;4.77;;;20.10;60.10;;;;;;4882458;29;20858;-92
2022/06/09 04:21:49;;;;;;;15.20;4.00;;;20.20;60.10;;;;;;4874779;29;20599;-93
2022/06/09 04:24:21;;;;;;;10.90;4.30;;;20.00;60.30;;;;;;4872608;29;20463;-92
2022/06/09 04:26:50;;;;;;;6.33;4.67;;;20.00;61.50;;;;;;4865150;29;20449;-91
2022/06/09 04:29:21;;;;;;;8.47;4.93;;;19.90;61.20;;;;;;4878933;29;20448;-92
2022/06/09 04:31:49;;;;;;;5.20;4.13;;;19.90;61.40;;;;;;4895163;29;20453;-92
2022/06/09 04:34:21;;;;;;;5.10;4.60;;;20.00;61.20;;;;;;4868332;29;21022;-92
2022/06/09 04:36:54;;;;;;;4.13;3.80;;;20.00;61.20;;;;;;4890662;29;20451;-93
2022/06/09 04:39:25;;;;;;;4.93;3.77;;;20.00;61.00;;;;;;4873940;29;20455;-92
2022/06/09 04:41:53;;;;;;;4.60;3.80;;;19.90;61.10;;;;;;4899640;29;20473;-92
2022/06/09 04:44:22;;;;;;;6.33;4.00;;;19.80;61.50;;;;;;4899401;29;20924;-94
2022/06/09 04:46:53;;;;;;;8.30;4.40;;;19.60;61.80;;;;;;4897632;29;20464;-92
2022/06/09 04:49:25;;;;;;;4.87;4.10;;;19.50;62.00;;;;;;4890770;29;20486;-92
2022/06/09 04:51:55;;;;;;;4.30;3.90;;;19.40;62.20;;;;;;4881882;29;20451;-92
2022/06/09 04:54:24;;;;;;;4.03;3.73;;;19.30;62.50;;;;;;4874984;29;20474;-92
2022/06/09 04:56:54;;;;;;;7.10;4.00;;;19.40;62.70;;;;;;4896618;29;20449;-92
2022/06/09 04:59:25;;;;;;;9.13;4.50;;;19.40;63.20;;;;;;4874430;29;20454;-92
2022/06/09 05:01:55;;;;;;;8.20;4.00;;;19.50;63.40;;;;;;4887839;29;20444;-92
2022/06/09 05:04:24;;;;;;;4.47;3.70;;;19.50;62.60;;;;;;4898575;29;20559;-94
2022/06/09 05:06:55;;;;;;;3.97;3.60;;;19.40;62.60;;;;;;4906325;29;20511;-92
2022/06/09 05:09:25;;;;;;;5.13;3.93;;;19.60;62.40;;;;;;4875171;29;20452;-92
2022/06/09 05:11:53;;;;;;;5.87;4.20;;;19.70;62.00;;;;;;4882574;29;20875;-91
2022/06/09 05:14:24;;;;;;;3.40;3.10;;;19.80;61.90;;;;;;4913191;29;20501;-92
2022/06/09 05:16:55;;;;;;;6.60;4.10;;;20.00;61.20;;;;;;4858952;29;20459;-91
2022/06/09 05:19:23;;;;;;;7.03;3.30;;;20.10;61.50;;;;;;4867703;29;20451;-92
2022/06/09 05:21:54;;;;;;;7.50;3.60;;;20.10;60.80;;;;;;4883636;29;20452;-92
2022/06/09 05:24:26;;;;;;;4.43;3.43;;;20.10;61.30;;;;;;4886074;29;20472;-92
2022/06/09 05:26:57;;;;;;;5.10;3.10;;;20.00;61.60;;;;;;4882623;29;20455;-91
2022/06/09 05:29:26;;;;;;;4.70;3.23;;;19.80;61.50;;;;;;4883662;29;20451;-94
2022/06/09 05:31:56;;;;;;;3.20;2.90;;;19.60;61.60;;;;;;4884680;29;20483;-93
2022/06/09 05:34:26;;;;;;;3.70;3.07;;;19.60;62.00;;;;;;4857128;29;20579;-93
2022/06/09 05:36:58;;;;;;;4.53;3.10;;;19.70;62.50;;;;;;4891474;29;20884;-92
2022/06/09 05:45:11;;;;;;;4.67;3.33;;;19.80;62.00;;;;;;4867249;29;20484;-92
2022/06/09 05:47:40;;;;;;;7.23;3.47;;;19.90;62.30;;;;;;4876386;29;20469;-91
2022/06/09 05:50:11;;;;;;;8.37;3.60;;;20.00;61.80;;;;;;4874425;29;20452;-92
2022/06/09 05:52:42;;;;;;;4.63;3.40;;;20.10;61.20;;;;;;4889819;29;20468;-93
2022/06/09 05:55:10;;;;;;;3.03;2.77;;;20.10;61.00;;;;;;4875900;29;20472;-93
2022/06/09 05:57:38;;;;;;;3.73;3.43;;;19.80;61.20;;;;;;4879911;29;20488;-93
2022/06/09 06:00:09;;;;;;;5.43;3.90;;;19.90;61.20;;;;;;4876598;29;20443;-94
2022/06/09 06:02:40;;;;;;;3.33;3.03;;;19.90;61.30;;;;;;4886389;29;20460;-91
2022/06/09 06:06:33;;;;;;;5.33;3.70;;;19.90;61.00;;;;;;4886054;29;20705;-91
2022/06/09 06:08:01;;;;;;;3.83;3.43;;;19.80;61.00;;;;;;4856805;29;20559;-94
2022/06/09 06:10:35;;;;;;;7.10;3.53;;;19.80;60.70;;;;;;4881817;29;20739;-92
2022/06/09 06:13:06;;;;;;;6.80;3.30;;;20.00;61.00;;;;;;4876849;29;20476;-92
2022/06/09 06:15:35;;;;;;;3.30;2.87;;;20.10;60.60;;;;;;4881669;29;20477;-92
2022/06/09 06:18:04;;;;;;;3.73;3.13;;;20.40;60.70;;;;;;4891337;29;20853;-93
2022/06/09 06:20:37;;;;;;;5.27;3.10;;;20.40;59.80;;;;;;4897680;29;20490;-92
2022/06/09 06:23:07;;;;;;;4.40;3.17;;;20.30;59.30;;;;;;4866837;29;20472;-92
2022/06/09 06:25:35;;;;;;;6.10;2.97;;;20.40;59.40;;;;;;4890077;29;20500;-93
2022/06/09 06:28:03;;;;;;;12.00;3.17;;;20.30;59.10;;;;;;4878217;29;20444;-93
2022/06/09 06:30:32;;;;;;;6.87;2.70;;;20.30;59.40;;;;;;4874093;29;20463;-94
2022/06/09 06:33:00;;;;;;;4.60;2.87;;;20.30;59.40;;;;;;4876150;29;20969;-90
2022/06/09 06:35:30;;;;;;;9.33;4.30;;;20.30;58.90;;;;;;4887200;29;20483;-90
2022/06/09 06:38:04;;;;;;;4.37;2.70;;;20.30;59.40;;;;;;4882917;29;20979;-92
2022/06/09 06:40:33;;;;;;;4.63;2.80;;;20.30;59.50;;;;;;4860944;29;20827;-93
2022/06/09 06:43:02;;;;;;;6.97;3.20;;;20.40;59.20;;;;;;4874029;29;20488;-93
2022/06/09 06:45:34;;;;;;;4.60;2.47;;;20.40;58.90;;;;;;4874145;29;20454;-94
2022/06/09 06:48:06;;;;;;;5.90;2.97;;;20.40;58.60;;;;;;4875415;29;21428;-93
2022/06/09 06:50:36;;;;;;;3.90;2.83;;;20.40;58.60;;;;;;4878964;29;20516;-94
2022/06/09 06:53:09;;;;;;;5.00;2.90;;;20.60;58.60;;;;;;4908389;29;20835;-94
2022/06/09 06:55:40;;;;;;;4.53;2.63;;;20.70;58.60;;;;;;4877239;29;20482;-94
2022/06/09 06:58:10;;;;;;;5.37;2.50;;;20.60;58.20;;;;;;4885715;29;20517;-95
2022/06/09 07:00:40;;;;;;;3.87;2.90;;;20.70;58.20;;;;;;4896329;29;20451;-94
2022/06/09 07:03:10;;;;;;;2.83;2.63;;;20.40;56.80;;;;;;4891709;29;20511;-93
2022/06/09 07:05:40;;;;;;;3.97;3.00;;;20.30;57.80;;;;;;4867636;29;20527;-93
2022/06/09 07:08:15;;;;;;;5.77;3.67;;;20.10;58.70;;;;;;4880329;29;20444;-91
2022/06/09 07:10:46;;;;;;;7.53;2.90;;;20.50;59.00;;;;;;4867527;29;20467;-93
2022/06/09 07:13:17;;;;;;;4.80;2.80;;;20.90;58.40;;;;;;4861037;29;20481;-92
2022/06/09 07:15:46;;;;;;;2.87;2.50;;;21.10;58.10;;;;;;4856734;29;20597;-91
2022/06/09 07:18:15;;;;;;;11.00;3.43;;;21.30;56.40;;;;;;4881791;29;20548;-91
2022/06/09 07:20:45;;;;;;;6.60;2.87;;;21.60;56.20;;;;;;4874868;29;20476;-94
2022/06/09 07:23:13;;;;;;;5.00;2.93;;;21.70;54.80;;;;;;4881439;29;20484;-92
2022/06/09 07:25:41;;;;;;;3.73;2.83;;;21.70;55.90;;;;;;4878678;29;20539;-93
2022/06/09 07:28:12;;;;;;;4.00;2.50;;;21.60;55.70;;;;;;4887853;29;20528;-92
2022/06/09 07:30:42;;;;;;;5.83;3.47;;;21.60;55.90;;;;;;4877746;29;20457;-92
2022/06/09 07:33:11;;;;;;;4.60;2.20;;;21.50;56.40;;;;;;4867124;29;20472;-92
2022/06/09 07:35:42;;;;;;;6.40;2.80;;;21.30;55.70;;;;;;4894811;29;20475;-94
2022/06/09 07:38:12;;;;;;;5.10;2.80;;;21.30;56.00;;;;;;4902818;29;20453;-92
2022/06/09 07:40:44;;;;;;;4.80;3.50;;;21.40;56.70;;;;;;4875230;29;20449;-93
2022/06/09 07:43:15;;;;;;;5.83;2.93;;;21.30;56.10;;;;;;4888210;29;20492;-93
2022/06/09 07:45:45;;;;;;;5.27;2.40;;;21.40;57.60;;;;;;4887195;29;20534;-92
2022/06/09 07:48:14;;;;;;;4.63;2.63;;;21.20;55.70;;;;;;4876725;29;20460;-91
2022/06/09 07:50:43;;;;;;;4.20;2.70;;;21.20;56.20;;;;;;4875754;29;20444;-92
2022/06/09 07:53:14;;;;;;;3.40;2.13;;;21.30;57.10;;;;;;4894714;29;20502;-92
2022/06/09 07:55:45;;;;;;;5.23;2.27;;;21.30;55.10;;;;;;4862270;29;20542;-91
2022/06/09 07:58:21;;;;;;;2.80;2.30;;;21.10;54.70;;;;;;4870086;29;20964;-92
2022/06/09 08:00:51;;;;;;;7.30;2.37;;;21.30;54.70;;;;;;4876852;29;20511;-94
2022/06/09 08:03:26;;;;;;;3.77;2.30;;;21.50;55.10;;;;;;4879495;29;21054;-92
2022/06/09 08:05:56;;;;;;;5.03;2.27;;;21.50;54.50;;;;;;4860381;29;20554;-92
2022/06/09 08:08:25;;;;;;;2.57;2.00;;;21.50;53.90;;;;;;4878802;29;20464;-92
2022/06/09 08:10:54;;;;;;;3.20;2.00;;;21.60;53.50;;;;;;4884454;29;20826;-92
2022/06/09 08:13:26;;;;;;;5.03;2.10;;;21.80;53.20;;;;;;4890763;29;20465;-92
2022/06/09 08:15:56;;;;;;;4.70;2.90;;;21.60;52.20;;;;;;4866302;29;21051;-92
2022/06/09 08:18:25;;;;;;;4.17;2.00;;;21.70;51.90;;;;;;4881916;29;20449;-91
2022/06/09 08:20:54;;;;;;;2.27;1.80;;;22.10;52.70;;;;;;4877277;29;20495;-92
2022/06/09 08:23:26;;;;;;;2.30;2.10;;;22.30;52.00;;;;;;4877766;29;21006;-89
2022/06/09 08:26:00;;;;;;;6.30;1.70;;;22.40;52.00;;;;;;4892936;29;20512;-89
2022/06/09 08:28:35;;;;;;;4.90;2.20;;;22.30;50.80;;;;;;4880811;29;20451;-90
2022/06/09 08:31:12;;;;;;;3.30;2.23;;;22.40;51.10;;;;;;4881990;29;20461;-90
2022/06/09 08:33:40;;;;;;;3.43;1.50;;;22.50;50.30;;;;;;4857016;29;21439;-90
2022/06/09 08:36:09;;;;;;;2.73;1.30;;;22.80;49.60;;;;;;4862292;29;20485;-91
2022/06/09 08:38:38;;;;;;;2.13;1.40;;;22.90;49.10;;;;;;4851006;29;20997;-91
2022/06/09 08:41:29;;;;;;;3.33;2.00;;;22.70;49.00;;;;;;4877532;29;20440;-90
2022/06/09 08:44:12;;;;;;;5.53;2.00;;;22.50;49.90;;;;;;4879802;29;20519;-88
2022/06/09 08:46:49;;;;;;;4.47;1.80;;;22.80;50.20;;;;;;4862011;29;20463;-90
2022/06/09 08:49:46;;;;;;;3.37;1.70;;;23.10;48.80;;;;;;4873303;29;20553;-90
2022/06/09 08:52:27;;;;;;;2.87;1.70;;;22.80;48.10;;;;;;4881075;29;20543;-90
2022/06/09 08:54:59;;;;;;;3.70;1.77;;;23.10;48.40;;;;;;4882588;29;20836;-91
2022/06/09 08:57:35;;;;;;;2.83;1.50;;;23.30;48.10;;;;;;4874098;29;20899;-92
2022/06/09 09:00:14;;;;;;;1.60;1.50;;;23.30;47.30;;;;;;4865274;29;20499;-92
2022/06/09 09:02:49;;;;;;;4.90;2.00;;;23.60;45.90;;;;;;4883455;29;20483;-91
2022/06/09 09:05:23;;;;;;;2.30;1.53;;;23.60;46.60;;;;;;4878285;29;20497;-90
2022/06/09 09:07:59;;;;;;;5.47;1.67;;;23.80;46.90;;;;;;4880863;29;20931;-89
2022/06/09 09:10:38;;;;;;;4.60;2.23;;;23.40;47.00;;;;;;4854173;29;20448;-89
2022/06/09 09:13:21;;;;;;;3.17;1.73;;;23.40;47.10;;;;;;4865050;29;20810;-90
2022/06/09 09:15:57;;;;;;;3.47;1.73;;;23.40;47.70;;;;;;4879275;29;20561;-89
2022/06/09 09:18:35;;;;;;;6.03;1.80;;;23.30;47.60;;;;;;4894806;29;20463;-90
2022/06/09 09:21:20;;;;;;;5.03;1.70;;;23.20;46.30;;;;;;4862915;29;20448;-89
2022/06/09 09:24:04;;;;;;;3.30;1.70;;;23.20;48.30;;;;;;4893066;29;20468;-90
2022/06/09 09:26:48;;;;;;;2.30;1.40;;;23.80;48.00;;;;;;4875492;29;20456;-92
2022/06/09 09:29:26;;;;;;;2.40;1.30;;;23.90;45.90;;;;;;4863687;29;20456;-90
2022/06/09 09:32:01;;;;;;;5.63;1.53;;;24.30;47.80;;;;;;4864342;29;20567;-91
2022/06/09 09:34:34;;;;;;;4.30;1.60;;;24.30;46.80;;;;;;4877763;29;20468;-90
2022/06/09 09:37:19;;;;;;;2.10;1.60;;;24.30;45.90;;;;;;4866158;29;20451;-89
2022/06/09 09:39:50;;;;;;;3.30;1.70;;;24.40;46.50;;;;;;4878413;29;20547;-89
2022/06/09 09:42:23;;;;;;;2.10;1.60;;;24.10;45.30;;;;;;4891497;29;20452;-89
2022/06/09 09:45:14;;;;;;;2.83;1.80;;;23.80;46.60;;;;;;4859226;29;20457;-90
2022/06/09 09:47:54;;;;;;;3.10;1.60;;;23.60;44.70;;;;;;4878682;29;20459;-89
2022/06/09 09:50:32;;;;;;;2.23;1.53;;;23.60;44.00;;;;;;4858813;29;20454;-89
2022/06/09 09:53:06;;;;;;;3.87;1.50;;;23.80;44.80;;;;;;4885129;29;20472;-92
2022/06/09 09:55:39;;;;;;;5.27;2.20;;;24.10;43.90;;;;;;4869961;29;20524;-89
2022/06/09 09:58:26;;;;;;;3.27;1.37;;;24.20;44.60;;;;;;4868657;29;20463;-89
2022/06/09 10:00:59;;;;;;;3.37;1.50;;;24.40;44.60;;;;;;4876215;29;20905;-89
2022/06/09 10:09:22;;;;;;;3.53;1.53;;;24.70;44.20;;;;;;4874332;29;20448;-89
2022/06/09 10:11:59;;;;;;;2.50;1.70;;;24.70;44.60;;;;;;4862541;29;20519;-89
2022/06/09 10:14:52;;;;;;;3.17;1.80;;;24.50;43.40;;;;;;4872621;29;20479;-89
2022/06/09 10:17:37;;;;;;;2.47;1.80;;;24.10;44.80;;;;;;4862061;29;20464;-95
2022/06/09 10:20:20;;;;;;;3.10;1.53;;;23.80;45.70;;;;;;4870345;29;20567;-91
2022/06/09 10:23:01;;;;;;;2.63;1.80;;;23.20;47.20;;;;;;4894139;29;21016;-91
2022/06/09 10:25:40;;;;;;;2.50;1.70;;;22.70;48.30;;;;;;4867592;29;20999;-94
2022/06/09 10:28:34;;;;;;;6.40;1.80;;;22.60;49.40;;;;;;4887646;29;20459;-91
2022/06/09 10:31:16;;;;;;;2.23;1.90;;;22.70;49.70;;;;;;4866259;29;20460;-90
2022/06/09 10:33:50;;;;;;;5.23;1.60;;;22.70;49.40;;;;;;4854764;29;20507;-90
2022/06/09 10:36:28;;;;;;;8.60;1.87;;;22.90;48.10;;;;;;4891341;29;20492;-90
2022/06/09 10:39:06;;;;;;;2.77;1.90;;;23.00;47.60;;;;;;4869085;29;21074;-89
2022/06/09 10:41:42;;;;;;;6.60;1.80;;;23.30;48.10;;;;;;4863223;29;20805;-90
2022/06/09 10:44:21;;;;;;;3.97;1.60;;;23.70;47.50;;;;;;4882632;29;20468;-92
2022/06/09 10:55:51;;;;;;;3.70;1.80;;;23.70;49.00;;;;;;4874089;29;21232;-91
2022/06/09 10:58:31;;;;;;;3.50;1.80;;;23.60;48.50;;;;;;4887237;29;20926;-92
2022/06/09 11:01:01;;;;;;;3.73;1.97;;;24.10;46.60;;;;;;4871192;29;20455;-90
2022/06/09 11:03:42;;;;;;;1.77;1.67;;;24.30;46.60;;;;;;4875415;29;20471;-90
2022/06/09 11:06:34;;;;;;;4.50;1.57;;;24.30;47.30;;;;;;4874614;29;20516;-93
2022/06/09 11:09:18;;;;;;;2.40;1.80;;;24.30;46.90;;;;;;4858300;29;21025;-91
2022/06/09 11:11:54;;;;;;;1.63;1.40;;;24.20;47.50;;;;;;4867175;29;20453;-92
2022/06/09 11:14:43;;;;;;;2.70;1.30;;;23.60;45.10;;;;;;4867647;29;20487;-90
2022/06/09 11:17:32;;;;;;;1.80;1.10;;;23.20;47.40;;;;;;4893956;29;20444;-89
2022/06/09 11:20:21;;;;;;;1.60;1.50;;;23.20;48.40;;;;;;4883292;29;20468;-89
2022/06/09 11:22:58;;;;;;;2.80;1.60;;;23.50;48.00;;;;;;4868968;29;20478;-90
2022/06/09 11:25:48;;;;;;;2.50;1.30;;;23.90;47.30;;;;;;4880311;29;20444;-91
2022/06/09 11:28:41;;;;;;;1.90;1.30;;;24.30;46.80;;;;;;4879526;29;20512;-90
2022/06/09 11:31:30;;;;;;;2.50;1.50;;;24.70;45.50;;;;;;4862647;29;21327;-89
2022/06/09 11:34:18;;;;;;;3.23;1.47;;;24.70;45.50;;;;;;4866660;29;20475;-89
2022/06/09 11:36:57;;;;;;;2.60;1.40;;;24.70;45.70;;;;;;4893820;29;20468;-91
2022/06/09 11:39:39;;;;;;;3.80;1.40;;;24.50;47.10;;;;;;4871079;29;20459;-90
2022/06/09 11:42:17;;;;;;;4.60;2.30;;;23.70;49.50;;;;;;4880003;29;20456;-90
2022/06/09 11:44:52;;;;;;;4.93;2.00;;;23.50;52.90;;;;;;4851336;29;20448;-89
2022/06/09 11:47:30;;;;;;;4.90;2.40;;;23.50;52.20;;;;;;4877435;29;20456;-89
2022/06/09 11:50:08;;;;;;;4.43;1.97;;;23.70;52.30;;;;;;4848007;29;20468;-91
2022/06/09 11:52:42;;;;;;;2.23;1.70;;;23.90;51.10;;;;;;4879246;29;20873;-90
2022/06/09 11:55:57;;;;;;;3.10;1.73;;;24.10;51.10;;;;;;4874814;29;20444;-91
2022/06/09 11:58:46;;;;;;;2.20;1.60;;;24.30;50.30;;;;;;4880397;29;20945;-89
2022/06/09 12:01:33;;;;;;;3.23;1.83;;;24.60;49.50;;;;;;4880748;29;20447;-88
2022/06/09 12:04:18;;;;;;;2.10;1.90;;;24.70;49.50;;;;;;4868821;29;20551;-92
2022/06/09 12:07:21;;;;;;;1.90;1.70;;;24.70;47.40;;;;;;4883921;29;20476;-90
2022/06/09 12:10:03;;;;;;;3.27;1.70;;;24.20;45.00;;;;;;4880647;29;20460;-89
2022/06/09 12:12:40;;;;;;;1.50;1.40;;;23.70;46.60;;;;;;4872955;29;20513;-91
2022/06/09 12:15:19;;;;;;;1.87;1.70;;;23.50;45.30;;;;;;4871621;29;20980;-90
2022/06/09 12:18:01;;;;;;;3.30;1.80;;;23.60;47.50;;;;;;4866307;29;20496;-91
2022/06/09 12:20:40;;;;;;;2.33;1.70;;;23.90;47.70;;;;;;4882622;29;20448;-91
2022/06/09 12:23:29;;;;;;;2.80;1.73;;;23.90;46.20;;;;;;4883130;29;20471;-91
2022/06/09 12:26:49;;;;;;;3.43;1.60;;;23.70;46.70;;;;;;4869688;29;20450;-89
2022/06/09 12:29:40;;;;;;;2.60;1.67;;;23.60;47.30;;;;;;4805277;29;20604;-90
2022/06/09 12:32:38;;;;;;;3.40;1.80;;;23.60;47.50;;;;;;4818217;29;20487;-89
2022/06/09 12:35:29;;;;;;;2.50;2.30;;;23.60;47.50;;;;;;4876300;29;20463;-90
2022/06/09 12:38:04;;;;;;;2.80;1.93;;;23.60;48.20;;;;;;4898774;29;20523;-92
2022/06/09 12:40:41;;;;;;;3.73;2.00;;;23.70;49.20;;;;;;4880416;29;20460;-91
2022/06/09 12:43:25;;;;;;;5.20;1.97;;;23.70;49.00;;;;;;4878172;29;20818;-93
2022/06/09 12:46:21;;;;;;;2.60;2.40;;;23.80;48.10;;;;;;4881966;29;20968;-90
2022/06/09 12:48:57;;;;;;;1.40;1.30;;;23.60;47.30;;;;;;4879141;29;20469;-92
2022/06/09 12:51:31;;;;;;;1.40;1.27;;;23.50;45.20;;;;;;4888126;29;20877;-91
2022/06/09 12:54:09;;;;;;;3.20;1.70;;;23.50;44.50;;;;;;4895605;29;20853;-90
2022/06/09 12:56:44;;;;;;;1.30;1.20;;;23.80;45.20;;;;;;4882767;29;20460;-92
2022/06/09 12:59:20;;;;;;;2.13;1.43;;;24.00;45.10;;;;;;4859823;29;20447;-90
2022/06/09 13:02:02;;;;;;;2.40;1.60;;;23.70;46.30;;;;;;4861713;29;20447;-90
2022/06/09 13:04:34;;;;;;;3.40;1.60;;;23.60;46.40;;;;;;4882396;29;20527;-91
2022/06/09 13:07:22;;;;;;;2.50;1.47;;;23.40;46.00;;;;;;4866469;29;20466;-88
2022/06/09 13:10:10;;;;;;;1.40;1.30;;;23.30;47.00;;;;;;4900253;29;20536;-91
2022/06/09 13:12:51;;;;;;;2.23;1.77;;;22.70;47.90;;;;;;4865369;29;20461;-89
2022/06/09 13:15:34;;;;;;;2.23;1.33;;;22.50;48.10;;;;;;4864622;29;20535;-91
2022/06/09 13:18:14;;;;;;;2.10;1.33;;;22.40;49.40;;;;;;4862769;29;20609;-91
2022/06/09 13:20:52;;;;;;;3.40;1.60;;;22.50;48.90;;;;;;4869494;29;20457;-90
2022/06/09 13:23:26;;;;;;;7.50;1.80;;;22.60;50.30;;;;;;4853893;29;20487;-90
2022/06/09 13:25:59;;;;;;;1.70;1.60;;;22.90;51.30;;;;;;4867444;29;20448;-90
2022/06/09 13:28:37;;;;;;;5.57;1.80;;;23.10;51.30;;;;;;4893564;29;20540;-90
2022/06/09 13:31:25;;;;;;;1.77;1.40;;;23.10;52.20;;;;;;4866252;29;20463;-90
2022/06/09 13:33:59;;;;;;;2.20;1.93;;;23.00;53.00;;;;;;4878089;29;20471;-90
2022/06/09 13:36:34;;;;;;;1.83;1.53;;;23.20;53.10;;;;;;4863493;29;20475;-90
2022/06/09 13:39:35;;;;;;;2.20;1.90;;;23.20;52.30;;;;;;4869877;29;20460;-90
2022/06/09 13:42:17;;;;;;;3.73;1.73;;;23.30;52.40;;;;;;4877461;29;20452;-89
2022/06/09 13:45:08;;;;;;;2.50;1.70;;;23.10;52.30;;;;;;4878886;29;20463;-90
2022/06/09 13:47:42;;;;;;;5.63;1.97;;;23.40;51.90;;;;;;4881116;29;20453;-90